Time;durP1;ratioP1;P1;durP2;ratioP2;P2;SDS_P1;SDS_P2;PMS_P1;PMS_P2;Temp;Humidity;BMP_temperature;BMP_pressure;BME280_temperature;BME280_humidity;BME280_pressure;Samples;Min_cycle;Max_cycle;Signal;HPM_P1;HPM_P2
2022/08/18 00:02:28;;;;;;;6.38;4.75;;;18.90;80.80;;;;;;4880128;29;20076;-80
2022/08/18 00:04:55;;;;;;;7.65;4.65;;;18.90;81.30;;;;;;4878813;29;20033;-80
2022/08/18 00:07:28;;;;;;;6.13;4.53;;;18.80;81.00;;;;;;4880155;29;20379;-79
2022/08/18 00:09:53;;;;;;;7.40;4.30;;;18.80;81.30;;;;;;4880090;29;20029;-79
2022/08/18 00:12:28;;;;;;;5.45;4.65;;;18.80;81.60;;;;;;4880163;29;20112;-80
2022/08/18 00:14:55;;;;;;;6.60;4.32;;;18.80;81.50;;;;;;4880192;29;20029;-79
2022/08/18 00:17:22;;;;;;;6.57;4.45;;;18.90;81.60;;;;;;4880091;29;20380;-79
2022/08/18 00:19:48;;;;;;;6.20;4.90;;;18.90;81.50;;;;;;4879796;29;20040;-80
2022/08/18 00:22:18;;;;;;;6.22;4.53;;;18.90;81.50;;;;;;4879996;29;20021;-79
2022/08/18 00:24:46;;;;;;;6.13;4.65;;;19.00;81.20;;;;;;4879815;29;20040;-79
2022/08/18 00:27:11;;;;;;;7.68;4.75;;;18.90;81.00;;;;;;4879902;29;20061;-79
2022/08/18 00:29:37;;;;;;;9.70;4.10;;;18.90;81.60;;;;;;4879814;29;20116;-78
2022/08/18 00:32:18;;;;;;;4.50;4.10;;;18.90;81.40;;;;;;4879669;29;20532;-78
2022/08/18 00:34:44;;;;;;;5.72;4.55;;;18.90;81.30;;;;;;4879777;29;20031;-78
2022/08/18 00:37:09;;;;;;;6.97;4.25;;;19.00;81.20;;;;;;4879097;29;20495;-77
2022/08/18 00:39:35;;;;;;;6.82;4.40;;;19.00;80.90;;;;;;4879669;29;20041;-78
2022/08/18 00:42:23;;;;;;;5.45;4.20;;;19.00;80.80;;;;;;4879628;29;20500;-78
2022/08/18 00:44:48;;;;;;;5.82;4.50;;;19.00;80.70;;;;;;4879521;29;20056;-77
2022/08/18 00:47:14;;;;;;;4.47;4.07;;;19.10;80.70;;;;;;4879551;29;20103;-78
2022/08/18 00:49:42;;;;;;;5.70;4.32;;;19.10;80.50;;;;;;4879374;29;20037;-76
2022/08/18 00:52:10;;;;;;;5.93;4.05;;;19.10;80.20;;;;;;4879294;29;20069;-76
2022/08/18 00:54:38;;;;;;;5.45;4.25;;;19.10;80.20;;;;;;4879445;29;20036;-77
2022/08/18 00:57:06;;;;;;;5.00;4.15;;;19.10;80.30;;;;;;4879494;29;20437;-76
2022/08/18 00:59:41;;;;;;;9.23;4.85;;;19.10;80.40;;;;;;4879152;29;20033;-76
2022/08/18 01:02:11;;;;;;;5.97;4.70;;;19.00;80.60;;;;;;4879440;29;20551;-76
2022/08/18 01:04:56;;;;;;;4.82;4.00;;;19.00;80.50;;;;;;4879255;29;20048;-76
2022/08/18 01:07:29;;;;;;;4.40;4.00;;;18.90;80.40;;;;;;4879260;29;20064;-76
2022/08/18 01:09:59;;;;;;;5.35;4.40;;;18.80;80.40;;;;;;4879414;29;20468;-76
2022/08/18 01:12:27;;;;;;;5.13;4.63;;;18.70;80.60;;;;;;4879197;29;20093;-77
2022/08/18 01:14:54;;;;;;;6.28;4.55;;;18.60;81.00;;;;;;4879197;29;20029;-76
2022/08/18 01:23:11;;;;;;;6.37;3.97;;;18.20;82.10;;;;;;4879481;29;20173;-77
2022/08/18 01:28:22;;;;;;;4.33;3.93;;;18.20;82.50;;;;;;4879084;29;20112;-78
2022/08/18 01:30:59;;;;;;;8.30;5.53;;;18.20;82.70;;;;;;4878939;29;20301;-78
2022/08/18 01:33:35;;;;;;;6.07;4.65;;;18.30;82.40;;;;;;4878913;29;20085;-77
2022/08/18 01:36:04;;;;;;;6.93;5.07;;;18.10;82.50;;;;;;4878797;29;20112;-77
2022/08/18 01:38:33;;;;;;;6.65;4.28;;;18.00;82.40;;;;;;4878725;29;20496;-77
2022/08/18 01:40:59;;;;;;;5.68;4.60;;;18.00;82.60;;;;;;4878906;29;20059;-77
2022/08/18 01:43:25;;;;;;;5.13;4.63;;;18.00;82.90;;;;;;4877476;29;20401;-77
2022/08/18 01:45:50;;;;;;;5.28;4.07;;;18.00;83.10;;;;;;4878861;29;20058;-77
2022/08/18 01:48:16;;;;;;;5.85;4.60;;;18.10;83.10;;;;;;4880603;29;20025;-77
2022/08/18 01:50:44;;;;;;;4.57;4.18;;;18.20;83.00;;;;;;4882657;29;20528;-77
2022/08/18 01:53:10;;;;;;;6.50;4.53;;;18.20;82.80;;;;;;4881356;29;20084;-77
2022/08/18 01:55:38;;;;;;;5.63;5.10;;;18.30;82.80;;;;;;4881405;29;20029;-76
2022/08/18 01:58:06;;;;;;;4.63;4.22;;;18.30;82.60;;;;;;4882424;29;20112;-76
2022/08/18 02:00:33;;;;;;;6.22;4.47;;;18.20;82.40;;;;;;4882484;29;20092;-78
2022/08/18 02:03:00;;;;;;;6.10;4.90;;;18.20;83.00;;;;;;4882473;29;20454;-78
2022/08/18 02:05:32;;;;;;;4.43;4.03;;;18.20;82.70;;;;;;4882323;29;20035;-78
2022/08/18 02:07:58;;;;;;;4.57;4.18;;;18.20;82.60;;;;;;4882319;29;20484;-78
2022/08/18 02:10:24;;;;;;;5.18;4.18;;;18.30;82.40;;;;;;4882269;29;20037;-78
2022/08/18 02:12:49;;;;;;;5.00;3.95;;;18.40;82.40;;;;;;4882301;29;20558;-78
2022/08/18 02:15:15;;;;;;;7.55;4.85;;;18.40;82.30;;;;;;4882284;29;20029;-78
2022/08/18 02:17:43;;;;;;;4.63;4.22;;;18.40;82.30;;;;;;4882272;29;20552;-79
2022/08/18 02:20:12;;;;;;;6.20;5.13;;;18.40;82.10;;;;;;4882205;29;20045;-78
2022/08/18 02:22:40;;;;;;;6.03;4.85;;;18.50;82.20;;;;;;4882178;29;20025;-78
2022/08/18 02:25:06;;;;;;;5.63;4.85;;;18.50;81.80;;;;;;4882248;29;20495;-78
2022/08/18 02:27:31;;;;;;;5.00;4.50;;;18.40;81.70;;;;;;4882161;29;20021;-78
2022/08/18 02:29:59;;;;;;;4.88;4.40;;;18.40;81.60;;;;;;4882026;29;20033;-78
2022/08/18 02:32:25;;;;;;;4.10;3.70;;;18.30;81.60;;;;;;4882154;29;20036;-78
2022/08/18 02:34:51;;;;;;;5.38;4.50;;;18.30;81.70;;;;;;4881978;29;20024;-79
2022/08/18 02:37:16;;;;;;;5.25;4.75;;;18.40;81.50;;;;;;4881898;29;20465;-80
2022/08/18 02:39:42;;;;;;;4.43;4.03;;;18.40;81.40;;;;;;4881816;29;20041;-78
2022/08/18 02:42:08;;;;;;;7.95;4.80;;;18.40;81.50;;;;;;4881864;29;20025;-78
2022/08/18 02:44:34;;;;;;;6.13;5.00;;;18.40;82.30;;;;;;4881651;29;20504;-78
2022/08/18 02:47:00;;;;;;;8.88;5.93;;;18.40;82.20;;;;;;4881778;29;20029;-78
2022/08/18 02:49:26;;;;;;;6.22;4.75;;;18.40;82.50;;;;;;4881743;29;20166;-78
2022/08/18 02:51:53;;;;;;;6.93;5.45;;;18.40;82.50;;;;;;4881724;29;20025;-78
2022/08/18 02:54:22;;;;;;;5.95;5.32;;;18.40;82.80;;;;;;4880381;29;20033;-78
2022/08/18 02:56:50;;;;;;;6.75;6.03;;;18.40;82.50;;;;;;4882118;29;20029;-78
2022/08/18 02:59:19;;;;;;;6.60;5.50;;;18.30;82.90;;;;;;4881482;29;20096;-77
2022/08/18 03:01:49;;;;;;;7.47;5.32;;;18.20;82.90;;;;;;4881561;29;20033;-77
2022/08/18 03:04:24;;;;;;;6.75;5.63;;;18.20;82.50;;;;;;4881376;29;20040;-78
2022/08/18 03:06:50;;;;;;;6.20;5.15;;;18.30;82.80;;;;;;4881520;29;20088;-77
2022/08/18 03:09:17;;;;;;;6.60;5.75;;;18.30;82.70;;;;;;4881566;29;20037;-78
2022/08/18 03:11:43;;;;;;;10.88;5.40;;;18.30;82.40;;;;;;4881463;29;20028;-78
2022/08/18 03:14:11;;;;;;;6.63;5.32;;;18.40;82.40;;;;;;4881320;29;20025;-78
2022/08/18 03:16:39;;;;;;;6.45;4.97;;;18.40;82.50;;;;;;4881343;29;20116;-78
2022/08/18 03:19:05;;;;;;;5.95;5.35;;;18.40;82.30;;;;;;4881274;29;20044;-78
2022/08/18 03:21:34;;;;;;;6.40;5.38;;;18.40;82.30;;;;;;4881255;29;20396;-77
2022/08/18 03:24:00;;;;;;;5.63;5.03;;;18.40;82.10;;;;;;4881190;29;20033;-77
2022/08/18 03:26:26;;;;;;;5.53;5.03;;;18.50;82.20;;;;;;4881243;29;20025;-78
2022/08/18 03:28:53;;;;;;;7.18;5.15;;;18.50;82.10;;;;;;4881163;29;20033;-78
2022/08/18 03:31:21;;;;;;;7.15;4.70;;;18.50;82.10;;;;;;4881207;29;20029;-76
2022/08/18 03:33:47;;;;;;;5.80;4.60;;;18.50;81.50;;;;;;4881085;29;20056;-77
2022/08/18 03:36:16;;;;;;;5.55;4.50;;;18.50;81.30;;;;;;4881135;29;20057;-76
2022/08/18 03:38:43;;;;;;;5.55;4.88;;;18.60;81.30;;;;;;4880840;29;20480;-77
2022/08/18 03:41:11;;;;;;;8.70;5.63;;;18.60;81.40;;;;;;4881039;29;20041;-78
2022/08/18 03:43:37;;;;;;;5.63;4.80;;;18.60;81.40;;;;;;4880497;29;20495;-78
2022/08/18 03:46:05;;;;;;;6.13;5.13;;;18.60;81.20;;;;;;4880806;29;20033;-77
2022/08/18 03:48:32;;;;;;;5.50;5.00;;;18.60;81.20;;;;;;4880696;29;20021;-77
2022/08/18 03:51:06;;;;;;;7.03;5.00;;;18.70;81.20;;;;;;4880697;29;20096;-77
2022/08/18 03:53:33;;;;;;;5.93;5.10;;;18.70;81.00;;;;;;4880796;29;20029;-78
2022/08/18 03:55:59;;;;;;;7.55;4.90;;;18.70;80.60;;;;;;4880817;29;20031;-77
2022/08/18 03:58:26;;;;;;;6.13;5.22;;;18.70;80.50;;;;;;4880499;29;20029;-77
2022/08/18 04:00:51;;;;;;;5.32;4.60;;;18.70;80.70;;;;;;4879565;29;20047;-78
2022/08/18 04:03:17;;;;;;;6.20;5.55;;;18.70;80.50;;;;;;4880488;29;20029;-76
2022/08/18 04:05:42;;;;;;;5.78;4.72;;;18.70;80.30;;;;;;4880488;29;20036;-77
2022/08/18 04:08:08;;;;;;;8.43;5.40;;;18.70;80.30;;;;;;4880599;29;20476;-77
2022/08/18 04:10:34;;;;;;;6.65;5.10;;;18.70;80.40;;;;;;4880357;29;20039;-77
2022/08/18 04:13:01;;;;;;;9.18;5.43;;;18.70;80.30;;;;;;4880323;29;20032;-76
2022/08/18 04:15:27;;;;;;;8.02;6.03;;;18.70;80.40;;;;;;4880202;29;20029;-76
2022/08/18 04:17:53;;;;;;;6.22;5.00;;;18.70;80.70;;;;;;4881197;29;20033;-76
2022/08/18 04:20:19;;;;;;;7.20;4.82;;;18.70;80.70;;;;;;4880580;29;20476;-77
2022/08/18 04:22:45;;;;;;;8.23;4.88;;;18.70;80.60;;;;;;4880293;29;20077;-77
2022/08/18 04:25:11;;;;;;;6.32;5.65;;;18.70;80.50;;;;;;4885418;29;20033;-78
2022/08/18 04:27:42;;;;;;;8.73;5.40;;;18.60;80.40;;;;;;4882271;29;20022;-76
2022/08/18 04:30:10;;;;;;;5.28;4.78;;;18.60;80.20;;;;;;4880605;29;20033;-77
2022/08/18 04:32:35;;;;;;;6.25;5.35;;;18.60;80.20;;;;;;4880012;29;20147;-77
2022/08/18 04:35:01;;;;;;;6.53;5.75;;;18.60;80.00;;;;;;4880284;29;20049;-78
2022/08/18 04:37:29;;;;;;;6.63;5.15;;;18.60;79.80;;;;;;4879661;29;20025;-77
2022/08/18 04:39:54;;;;;;;8.15;5.30;;;18.70;79.90;;;;;;4878574;29;20037;-77
2022/08/18 04:42:20;;;;;;;5.97;5.45;;;18.70;79.60;;;;;;4879771;29;20032;-77
2022/08/18 04:44:45;;;;;;;6.70;6.00;;;18.80;79.50;;;;;;4879666;29;20063;-78
2022/08/18 04:47:12;;;;;;;8.30;5.38;;;18.70;79.60;;;;;;4879811;29;20100;-78
2022/08/18 04:49:37;;;;;;;6.03;5.18;;;18.80;80.00;;;;;;4879406;29;20025;-78
2022/08/18 04:55:09;;;;;;;7.13;5.18;;;18.90;79.50;;;;;;4840557;29;20074;-78
2022/08/18 04:57:35;;;;;;;7.53;4.93;;;19.00;79.40;;;;;;4840407;29;20030;-79
2022/08/18 05:00:04;;;;;;;6.63;5.15;;;19.00;79.20;;;;;;4858903;29;20053;-79
2022/08/18 05:02:31;;;;;;;7.30;5.70;;;19.00;80.00;;;;;;4879451;29;20171;-79
2022/08/18 05:04:57;;;;;;;5.80;4.47;;;19.10;79.40;;;;;;4879547;29;20021;-79
2022/08/18 05:07:22;;;;;;;7.22;5.22;;;19.10;79.50;;;;;;4879504;29;20294;-79
2022/08/18 05:09:49;;;;;;;5.90;5.30;;;19.10;79.60;;;;;;4879404;29;20021;-79
2022/08/18 05:12:15;;;;;;;5.60;4.65;;;19.10;79.50;;;;;;4879397;29;20044;-79
2022/08/18 05:14:45;;;;;;;6.97;5.78;;;19.20;79.40;;;;;;4879369;29;20487;-79
2022/08/18 05:17:13;;;;;;;5.82;5.30;;;19.10;79.10;;;;;;4879189;29;20064;-79
2022/08/18 05:19:40;;;;;;;5.97;4.90;;;19.10;79.20;;;;;;4879072;29;20037;-79
2022/08/18 05:22:06;;;;;;;5.55;5.03;;;19.20;79.00;;;;;;4878841;29;20114;-78
2022/08/18 05:24:34;;;;;;;6.20;5.25;;;19.20;78.90;;;;;;4879153;29;20036;-78
2022/08/18 05:27:00;;;;;;;6.28;4.70;;;19.20;78.80;;;;;;4879081;29;20021;-78
2022/08/18 05:29:25;;;;;;;5.72;5.22;;;19.20;78.80;;;;;;4879285;29;20052;-78
2022/08/18 05:31:52;;;;;;;5.72;5.13;;;19.10;78.80;;;;;;4879280;29;20112;-78
2022/08/18 05:34:20;;;;;;;6.60;5.40;;;19.20;78.50;;;;;;4879065;29;20124;-78
2022/08/18 05:36:49;;;;;;;6.07;5.45;;;19.10;78.60;;;;;;4878981;29;20128;-78
2022/08/18 05:39:22;;;;;;;6.50;5.05;;;19.20;78.60;;;;;;4878945;29;20041;-78
2022/08/18 05:42:08;;;;;;;6.70;4.75;;;19.20;78.40;;;;;;4878978;29;20033;-78
2022/08/18 05:44:39;;;;;;;7.90;5.50;;;19.20;78.30;;;;;;4879042;29;20056;-79
2022/08/18 05:47:16;;;;;;;5.57;5.07;;;19.20;78.30;;;;;;4878945;29;20036;-80
2022/08/18 05:49:44;;;;;;;5.50;4.72;;;19.10;78.10;;;;;;4879146;29;20092;-79
2022/08/18 05:52:18;;;;;;;8.23;5.47;;;19.20;78.00;;;;;;4879138;29;20480;-79
2022/08/18 05:58:09;;;;;;;7.43;5.95;;;19.20;77.80;;;;;;4861347;29;20354;-78
2022/08/18 06:00:36;;;;;;;5.55;4.80;;;19.20;77.60;;;;;;4878692;29;20097;-78
2022/08/18 06:03:15;;;;;;;7.82;5.13;;;19.20;77.50;;;;;;4878739;29;20057;-78
2022/08/18 06:05:52;;;;;;;6.72;4.97;;;19.10;77.50;;;;;;4878774;29;20027;-79
2022/08/18 06:08:21;;;;;;;5.18;4.68;;;19.20;77.50;;;;;;4878360;29;20453;-79
2022/08/18 06:10:48;;;;;;;7.57;5.60;;;19.20;77.60;;;;;;4878677;29;20341;-79
2022/08/18 06:13:15;;;;;;;6.82;4.28;;;19.30;77.20;;;;;;4878734;29;20041;-74
2022/08/18 06:16:08;;;;;;;8.30;4.80;;;19.30;76.90;;;;;;4878210;29;20029;-74
2022/08/18 06:18:45;;;;;;;6.18;5.10;;;19.50;76.20;;;;;;4878471;29;20108;-75
2022/08/18 06:21:33;;;;;;;6.97;5.22;;;19.70;74.90;;;;;;4878467;29;20037;-73
2022/08/18 06:24:17;;;;;;;6.35;5.75;;;19.70;74.90;;;;;;4878618;29;20061;-74
2022/08/18 06:27:15;;;;;;;9.80;5.57;;;19.60;75.20;;;;;;4878373;29;20036;-74
2022/08/18 06:30:06;;;;;;;10.18;6.38;;;19.20;77.30;;;;;;4878318;29;20033;-72
2022/08/18 06:32:55;;;;;;;9.68;6.13;;;18.70;78.10;;;;;;4878591;29;20021;-72
2022/08/18 06:35:49;;;;;;;11.70;6.50;;;18.40;80.30;;;;;;4880431;29;20105;-72
2022/08/18 06:38:37;;;;;;;12.75;6.90;;;18.20;81.80;;;;;;4880620;29;20342;-73
2022/08/18 06:41:08;;;;;;;9.85;6.43;;;18.20;82.60;;;;;;4881723;29;20044;-72
2022/08/18 06:43:36;;;;;;;8.23;6.03;;;18.40;81.90;;;;;;4881649;29;20029;-74
2022/08/18 06:46:11;;;;;;;11.05;5.82;;;18.60;80.70;;;;;;4881751;29;20076;-73
2022/08/18 06:48:46;;;;;;;11.55;6.35;;;18.80;79.80;;;;;;4881409;29;20025;-75
2022/08/18 06:51:16;;;;;;;8.32;6.38;;;19.10;79.00;;;;;;4882201;29;20073;-75
2022/08/18 06:53:51;;;;;;;9.45;7.05;;;19.40;78.20;;;;;;4882679;29;20029;-76
2022/08/18 06:56:25;;;;;;;8.95;5.95;;;19.70;76.90;;;;;;4882039;29;20071;-75
2022/08/18 06:58:54;;;;;;;7.32;5.53;;;19.90;76.10;;;;;;4881433;29;20033;-76
2022/08/18 07:01:22;;;;;;;6.20;5.38;;;20.10;75.40;;;;;;4881853;29;20022;-75
2022/08/18 07:03:53;;;;;;;6.90;5.20;;;20.30;74.60;;;;;;4892350;29;20032;-74
2022/08/18 07:06:20;;;;;;;7.05;4.90;;;20.50;74.30;;;;;;4902365;29;20024;-75
2022/08/18 07:08:47;;;;;;;5.82;4.82;;;20.50;73.70;;;;;;4903547;29;20021;-74
2022/08/18 07:11:26;;;;;;;7.47;5.55;;;20.60;73.70;;;;;;4903568;29;20055;-73
2022/08/18 07:14:11;;;;;;;8.20;5.85;;;20.50;73.10;;;;;;4903049;29;20017;-73
2022/08/18 07:16:37;;;;;;;7.60;5.95;;;20.60;73.00;;;;;;4901477;29;20040;-75
2022/08/18 07:19:15;;;;;;;6.65;5.95;;;20.80;71.50;;;;;;4884609;29;20223;-75
2022/08/18 07:21:42;;;;;;;7.13;5.57;;;20.90;71.20;;;;;;4879887;29;20433;-75
2022/08/18 07:24:10;;;;;;;6.22;5.43;;;21.00;71.00;;;;;;4887825;29;20029;-74
2022/08/18 07:27:06;;;;;;;6.97;5.63;;;21.30;70.30;;;;;;4882170;29;20025;-75
2022/08/18 07:29:36;;;;;;;7.38;5.55;;;21.50;69.50;;;;;;4881108;29;20053;-75
2022/08/18 07:32:11;;;;;;;8.68;6.55;;;21.60;69.10;;;;;;4880830;29;20081;-75
2022/08/18 07:34:45;;;;;;;8.30;6.75;;;21.70;69.40;;;;;;4880381;29;20045;-76
2022/08/18 07:37:29;;;;;;;7.63;5.32;;;21.40;69.00;;;;;;4880620;29;20085;-75
2022/08/18 07:40:18;;;;;;;6.82;5.32;;;21.40;69.40;;;;;;4880818;29;20060;-74
2022/08/18 07:43:04;;;;;;;8.25;6.50;;;21.40;69.40;;;;;;4880602;29;20032;-75
2022/08/18 07:45:39;;;;;;;;;;;21.50;69.10;;;;;;4880525;29;20120;-75
2022/08/18 07:48:14;;;;;;;9.32;7.80;;;21.70;68.50;;;;;;4879742;29;19908;-79
2022/08/18 07:50:54;;;;;;;7.95;6.43;;;21.80;69.10;;;;;;4877732;29;20053;-75
2022/08/18 07:53:26;;;;;;;7.03;5.78;;;21.80;68.00;;;;;;4880270;29;20033;-75
2022/08/18 07:55:57;;;;;;;8.20;5.55;;;21.90;67.60;;;;;;4880333;29;20388;-73
2022/08/18 07:58:36;;;;;;;9.88;6.25;;;21.90;67.40;;;;;;4880064;29;20477;-76
2022/08/18 08:01:14;;;;;;;7.53;5.63;;;22.00;67.20;;;;;;4879889;29;20492;-74
2022/08/18 08:03:45;;;;;;;7.05;5.78;;;22.10;67.10;;;;;;4880042;29;20029;-76
2022/08/18 08:06:22;;;;;;;6.15;5.13;;;22.10;65.80;;;;;;4880238;29;20073;-76
2022/08/18 08:08:54;;;;;;;8.25;5.70;;;22.00;66.30;;;;;;4879953;29;20112;-76
2022/08/18 08:11:29;;;;;;;6.30;5.18;;;22.00;66.30;;;;;;4880004;29;20060;-76
2022/08/18 08:14:24;;;;;;;7.75;5.60;;;22.10;66.20;;;;;;4879715;29;20333;-75
2022/08/18 08:16:56;;;;;;;9.32;7.22;;;22.40;65.80;;;;;;4879795;29;20530;-78
2022/08/18 08:19:33;;;;;;;7.65;6.00;;;22.70;65.60;;;;;;4879705;29;20036;-74
2022/08/18 08:22:28;;;;;;;7.25;6.10;;;22.90;64.70;;;;;;4879860;29;20037;-73
2022/08/18 08:25:21;;;;;;;9.07;6.45;;;23.20;63.70;;;;;;4857775;29;20060;-75
2022/08/18 08:28:12;;;;;;;12.70;8.68;;;23.10;64.70;;;;;;4879640;29;20081;-73
2022/08/18 08:30:54;;;;;;;11.15;8.57;;;22.80;65.60;;;;;;4884006;29;20045;-75
2022/08/18 08:33:58;;;;;;;7.78;6.97;;;22.60;65.50;;;;;;4883610;29;20049;-75
2022/08/18 08:36:32;;;;;;;7.57;6.50;;;22.70;65.90;;;;;;4878435;29;20386;-76
2022/08/18 08:39:10;;;;;;;12.23;7.90;;;22.70;65.50;;;;;;4879652;29;20160;-74
2022/08/18 08:41:55;;;;;;;8.98;6.53;;;22.50;66.20;;;;;;4878344;29;20454;-74
2022/08/18 08:44:41;;;;;;;9.20;7.65;;;22.40;66.30;;;;;;4879494;29;20095;-76
2022/08/18 08:47:16;;;;;;;11.07;7.72;;;22.50;66.60;;;;;;4878271;29;20484;-76
2022/08/18 08:49:47;;;;;;;14.15;7.60;;;22.50;67.20;;;;;;4878963;29;20037;-73
2022/08/18 08:52:25;;;;;;;10.10;7.47;;;22.40;67.10;;;;;;4879309;29;20037;-74
2022/08/18 08:54:57;;;;;;;7.45;5.85;;;21.90;68.40;;;;;;4879451;29;20525;-75
2022/08/18 08:57:31;;;;;;;10.48;7.22;;;22.10;67.90;;;;;;4878648;29;20073;-77
2022/08/18 09:00:01;;;;;;;7.20;6.13;;;22.40;67.20;;;;;;4879336;29;20380;-74
2022/08/18 09:02:34;;;;;;;7.93;6.97;;;22.50;66.70;;;;;;4879146;29;20025;-75
2022/08/18 09:05:14;;;;;;;6.43;5.63;;;22.50;66.50;;;;;;4879253;29;20058;-75
2022/08/18 09:07:47;;;;;;;8.05;5.18;;;22.60;66.20;;;;;;4879145;29;20032;-74
2022/08/18 09:10:24;;;;;;;8.63;6.32;;;22.80;65.20;;;;;;4879096;29;20044;-75
2022/08/18 09:13:23;;;;;;;8.45;5.90;;;23.10;64.50;;;;;;4879166;29;20032;-75
2022/08/18 09:15:55;;;;;;;6.50;5.38;;;23.30;64.40;;;;;;4879140;29;20484;-75
2022/08/18 09:18:27;;;;;;;6.30;5.50;;;23.50;63.30;;;;;;4878959;29;20040;-74
2022/08/18 09:21:11;;;;;;;6.75;5.45;;;23.70;62.10;;;;;;4878842;29;20033;-74
2022/08/18 09:23:52;;;;;;;5.88;4.78;;;23.90;61.90;;;;;;4878763;29;20021;-74
2022/08/18 09:26:40;;;;;;;6.90;4.68;;;24.00;60.90;;;;;;4879097;29;20036;-74
2022/08/18 09:29:24;;;;;;;5.93;5.15;;;24.10;60.20;;;;;;4878868;29;20085;-77
2022/08/18 09:32:37;;;;;;;5.65;4.88;;;24.30;59.40;;;;;;4879097;29;20440;-76
2022/08/18 09:35:22;;;;;;;8.75;5.50;;;24.50;58.20;;;;;;4821329;29;20058;-74
2022/08/18 09:44:08;;;;;;;7.85;4.93;;;24.90;56.90;;;;;;4878423;29;20057;-74
2022/08/18 09:46:43;;;;;;;5.75;4.65;;;25.00;56.50;;;;;;4878877;29;20450;-75
2022/08/18 09:49:29;;;;;;;5.80;5.20;;;25.20;55.90;;;;;;4878633;29;20041;-74
2022/08/18 09:51:57;;;;;;;4.75;4.20;;;25.50;55.30;;;;;;4877380;29;20325;-74
2022/08/18 09:54:26;;;;;;;5.95;4.88;;;25.70;54.70;;;;;;4878701;29;20108;-76
2022/08/18 09:56:57;;;;;;;5.63;4.43;;;25.60;54.50;;;;;;4878538;29;20108;-75
2022/08/18 09:59:32;;;;;;;5.03;4.50;;;25.50;54.30;;;;;;4878491;29;20060;-75
2022/08/18 10:01:58;;;;;;;5.60;4.82;;;25.40;55.00;;;;;;4878541;29;20041;-76
2022/08/18 10:04:28;;;;;;;5.20;4.70;;;25.40;55.20;;;;;;4878448;29;20041;-73
2022/08/18 10:07:13;;;;;;;5.70;5.20;;;25.20;55.40;;;;;;4876991;29;20028;-73
2022/08/18 10:10:09;;;;;;;6.10;5.13;;;24.70;56.70;;;;;;4880629;29;20037;-75
2022/08/18 10:12:56;;;;;;;6.75;4.82;;;24.20;59.00;;;;;;4882001;29;20053;-75
2022/08/18 10:15:22;;;;;;;6.38;5.10;;;24.00;59.80;;;;;;4881990;29;20540;-74
2022/08/18 10:18:22;;;;;;;6.15;4.72;;;24.00;59.20;;;;;;4881923;29;20025;-75
2022/08/18 10:21:17;;;;;;;5.30;4.03;;;24.30;59.10;;;;;;4871719;29;20404;-74
2022/08/18 10:24:15;;;;;;;6.33;5.07;;;24.50;58.30;;;;;;4881857;29;20029;-75
2022/08/18 10:26:41;;;;;;;5.18;4.57;;;24.20;58.70;;;;;;4881873;29;20272;-79
2022/08/18 10:29:30;;;;;;;6.82;4.47;;;24.20;58.70;;;;;;4881565;29;20032;-79
2022/08/18 10:31:56;;;;;;;4.88;4.35;;;24.40;58.40;;;;;;4881825;29;20021;-74
2022/08/18 10:34:40;;;;;;;6.43;4.80;;;24.40;58.30;;;;;;4881480;29;20032;-75
2022/08/18 10:37:46;;;;;;;5.93;5.10;;;24.50;58.00;;;;;;4881641;29;20078;-75
2022/08/18 10:40:18;;;;;;;5.53;4.45;;;24.30;58.10;;;;;;4850253;29;20052;-76
2022/08/18 10:43:06;;;;;;;7.55;4.90;;;24.30;58.60;;;;;;4881657;29;20060;-75
2022/08/18 10:45:47;;;;;;;4.63;4.22;;;24.30;59.00;;;;;;4881379;29;20060;-75
2022/08/18 10:48:29;;;;;;;8.02;4.50;;;24.30;58.90;;;;;;4881236;29;20056;-76
2022/08/18 10:51:16;;;;;;;5.47;4.15;;;24.50;58.30;;;;;;4881363;29;20122;-77
2022/08/18 10:53:54;;;;;;;5.38;4.05;;;24.70;57.30;;;;;;4881754;29;20021;-76
2022/08/18 10:56:30;;;;;;;4.63;4.22;;;25.00;56.30;;;;;;4881519;29;20029;-75
2022/08/18 10:59:27;;;;;;;9.73;6.57;;;25.30;55.50;;;;;;4881119;29;20021;-75
2022/08/18 11:02:20;;;;;;;12.98;8.73;;;25.50;55.30;;;;;;4881500;29;20555;-75
2022/08/18 11:04:49;;;;;;;6.90;5.38;;;25.60;55.00;;;;;;4880934;29;20021;-75
2022/08/18 11:07:21;;;;;;;9.45;5.18;;;25.50;54.50;;;;;;4881042;29;20069;-75
2022/08/18 11:09:58;;;;;;;6.80;5.05;;;25.30;55.00;;;;;;4881197;29;20093;-76
2022/08/18 11:12:49;;;;;;;4.93;4.40;;;25.20;55.30;;;;;;4881291;29;20041;-75
2022/08/18 11:15:40;;;;;;;8.32;4.47;;;25.00;55.90;;;;;;4855951;29;20069;-84
2022/08/18 11:18:27;;;;;;;7.97;5.00;;;24.90;56.10;;;;;;4881481;29;20021;-82
2022/08/18 11:21:13;;;;;;;6.07;4.22;;;24.80;56.40;;;;;;4879162;29;20025;-77
2022/08/18 11:23:39;;;;;;;6.82;5.03;;;24.80;57.00;;;;;;4880893;29;20037;-79
2022/08/18 11:26:15;;;;;;;7.95;4.82;;;24.70;56.80;;;;;;4881011;29;20029;-78
2022/08/18 11:28:41;;;;;;;10.07;5.50;;;24.50;57.20;;;;;;4879850;29;20152;-75
2022/08/18 11:31:07;;;;;;;5.03;4.25;;;24.50;57.50;;;;;;4880963;29;20572;-78
2022/08/18 11:33:33;;;;;;;6.63;4.72;;;24.50;57.40;;;;;;4880836;29;20025;-77
2022/08/18 11:35:59;;;;;;;5.22;4.72;;;24.60;57.50;;;;;;4880587;29;20511;-78
2022/08/18 11:38:27;;;;;;;4.60;4.20;;;24.30;57.40;;;;;;4880630;29;20101;-77
2022/08/18 11:41:17;;;;;;;6.28;4.85;;;24.20;58.20;;;;;;4880618;29;20498;-78
2022/08/18 11:43:43;;;;;;;5.38;4.85;;;24.10;58.80;;;;;;4880317;29;20132;-76
2022/08/18 11:46:32;;;;;;;5.93;4.50;;;24.10;59.00;;;;;;4880693;29;20472;-77
2022/08/18 11:49:00;;;;;;;6.22;5.03;;;24.10;58.90;;;;;;4880497;29;20034;-78
2022/08/18 11:51:29;;;;;;;4.75;4.30;;;24.20;58.30;;;;;;4880573;29;20476;-78
2022/08/18 11:54:13;;;;;;;5.40;4.45;;;24.20;58.30;;;;;;4880325;29;20049;-77
2022/08/18 11:56:38;;;;;;;5.25;4.80;;;24.20;58.20;;;;;;4880365;29;20148;-77
2022/08/18 11:59:07;;;;;;;6.43;4.70;;;24.10;58.30;;;;;;4880278;29;20037;-78
2022/08/18 12:01:37;;;;;;;5.50;4.45;;;24.00;58.60;;;;;;4880402;29;20025;-79
2022/08/18 12:04:12;;;;;;;5.75;4.70;;;24.00;58.70;;;;;;4879258;29;20025;-77
2022/08/18 12:06:40;;;;;;;8.95;4.88;;;24.10;58.40;;;;;;4880247;29;20025;-78
2022/08/18 12:09:19;;;;;;;5.85;5.28;;;24.10;58.50;;;;;;4880085;29;20445;-77
2022/08/18 12:11:57;;;;;;;5.40;4.85;;;24.00;58.00;;;;;;4880183;29;20044;-77
2022/08/18 12:14:26;;;;;;;7.15;5.82;;;23.90;57.90;;;;;;4880163;29;20067;-77
2022/08/18 12:16:53;;;;;;;5.55;4.95;;;23.80;58.10;;;;;;4879966;29;20021;-78
2022/08/18 12:19:19;;;;;;;7.30;4.70;;;23.60;59.00;;;;;;4879876;29;20480;-77
2022/08/18 12:21:55;;;;;;;7.60;4.70;;;23.50;58.90;;;;;;4880069;29;20029;-77
2022/08/18 12:24:30;;;;;;;4.68;4.18;;;23.40;59.20;;;;;;4879893;29;20080;-78
2022/08/18 12:26:57;;;;;;;7.72;4.93;;;23.50;59.60;;;;;;4880017;29;20033;-78
2022/08/18 12:29:23;;;;;;;6.60;5.00;;;23.50;59.90;;;;;;4879519;29;20089;-77
2022/08/18 12:31:51;;;;;;;4.80;4.40;;;23.50;59.60;;;;;;4879169;29;20156;-77
2022/08/18 12:34:18;;;;;;;7.85;4.93;;;23.40;59.70;;;;;;4879437;29;20383;-77
2022/08/18 12:36:45;;;;;;;5.25;4.43;;;23.40;59.80;;;;;;4879532;29;20029;-77
2022/08/18 12:39:12;;;;;;;8.38;4.65;;;23.40;59.90;;;;;;4879420;29;20109;-76
2022/08/18 12:41:37;;;;;;;6.78;4.93;;;23.30;59.30;;;;;;4879493;29;20132;-78
2022/08/18 12:44:03;;;;;;;7.57;5.30;;;23.30;59.50;;;;;;4878845;29;20078;-78
2022/08/18 12:46:29;;;;;;;6.53;4.22;;;23.20;59.30;;;;;;4877860;29;20507;-78
2022/08/18 12:48:55;;;;;;;6.40;5.07;;;23.20;59.60;;;;;;4879410;29;20037;-78
2022/08/18 12:51:21;;;;;;;5.65;5.03;;;23.20;59.40;;;;;;4879129;29;20115;-76
2022/08/18 12:53:47;;;;;;;7.63;5.70;;;23.30;59.50;;;;;;4879314;29;20477;-78
2022/08/18 12:56:29;;;;;;;6.18;5.40;;;23.30;59.40;;;;;;4879118;29;20075;-77
2022/08/18 12:58:55;;;;;;;5.85;4.75;;;23.40;59.60;;;;;;4879270;29;20025;-75
2022/08/18 13:01:21;;;;;;;6.82;5.07;;;23.40;59.20;;;;;;4879226;29;20079;-77
2022/08/18 13:03:47;;;;;;;5.70;5.07;;;23.50;59.10;;;;;;4878848;29;20053;-80
2022/08/18 13:06:13;;;;;;;6.35;4.88;;;23.50;58.80;;;;;;4878883;29;20032;-78
2022/08/18 13:08:39;;;;;;;9.07;5.82;;;23.50;58.70;;;;;;4879150;29;20048;-75
2022/08/18 13:11:09;;;;;;;5.53;5.03;;;23.60;58.50;;;;;;4879083;29;20080;-75
2022/08/18 13:13:37;;;;;;;7.95;5.32;;;23.70;58.80;;;;;;4879070;29;20021;-78
2022/08/18 13:16:04;;;;;;;5.60;5.00;;;23.70;57.20;;;;;;4879002;29;20416;-78
2022/08/18 13:18:29;;;;;;;6.00;4.75;;;23.60;56.60;;;;;;4877833;29;20089;-78
2022/08/18 13:20:59;;;;;;;5.35;4.85;;;23.70;56.40;;;;;;4878899;29;20473;-78
2022/08/18 13:23:26;;;;;;;9.27;5.60;;;23.60;56.60;;;;;;4878822;29;20040;-79
2022/08/18 13:25:52;;;;;;;9.25;5.78;;;23.60;57.00;;;;;;4878950;29;20025;-78
2022/08/18 13:28:17;;;;;;;12.00;6.68;;;23.50;59.10;;;;;;4878637;29;20112;-79
2022/08/18 13:30:44;;;;;;;7.70;6.93;;;23.50;61.50;;;;;;4878994;29;20037;-78
2022/08/18 13:33:10;;;;;;;12.20;7.50;;;23.50;62.50;;;;;;4879154;29;20164;-78
2022/08/18 13:35:36;;;;;;;8.48;7.25;;;23.50;63.20;;;;;;4878904;29;20111;-79